sensor_id;sensor_type;location;lat;lon;timestamp;pressure;altitude;pressure_sealevel;temperature;humidity
39141;BME280;24875;48.436;10.298;2023-06-19T20:59:44;96010.91;;;25.24;64.40
39141;BME280;24875;48.436;10.298;2023-06-19T21:02:11;96005.28;;;25.25;63.76
39141;BME280;24875;48.436;10.298;2023-06-19T21:04:38;96006.03;;;25.41;62.28
39141;BME280;24875;48.436;10.298;2023-06-19T21:07:05;96002.22;;;25.42;62.00
39141;BME280;24875;48.436;10.298;2023-06-19T21:09:31;95992.31;;;25.13;63.79
39141;BME280;24875;48.436;10.298;2023-06-19T21:11:58;95990.44;;;25.13;64.33
39141;BME280;24875;48.436;10.298;2023-06-19T21:14:24;95989.94;;;24.81;65.28
39141;BME280;24875;48.436;10.298;2023-06-19T21:16:52;95987.75;;;24.83;66.56
39141;BME280;24875;48.436;10.298;2023-06-19T21:19:22;95994.25;;;24.77;65.83
39141;BME280;24875;48.436;10.298;2023-06-19T21:21:48;95995.31;;;24.76;65.17
39141;BME280;24875;48.436;10.298;2023-06-19T21:24:14;96001.78;;;24.75;66.28
39141;BME280;24875;48.436;10.298;2023-06-19T21:26:41;96003.41;;;24.66;66.21
39141;BME280;24875;48.436;10.298;2023-06-19T21:29:08;95996.94;;;24.62;66.45
39141;BME280;24875;48.436;10.298;2023-06-19T21:31:34;96005.28;;;24.51;66.79
39141;BME280;24875;48.436;10.298;2023-06-19T21:34:02;96002.88;;;24.55;66.48
39141;BME280;24875;48.436;10.298;2023-06-19T21:36:29;96003.41;;;24.47;67.39
39141;BME280;24875;48.436;10.298;2023-06-19T21:38:55;95997.47;;;24.45;67.18
39141;BME280;24875;48.436;10.298;2023-06-19T21:41:22;95993.69;;;24.41;67.46
39141;BME280;24875;48.436;10.298;2023-06-19T21:43:48;96005.50;;;24.35;68.17
39141;BME280;24875;48.436;10.298;2023-06-19T21:46:14;95999.84;;;24.26;68.55
39141;BME280;24875;48.436;10.298;2023-06-19T21:48:41;96008.09;;;23.90;69.45
39141;BME280;24875;48.436;10.298;2023-06-19T21:51:09;96007.59;;;24.03;69.91
39141;BME280;24875;48.436;10.298;2023-06-19T21:53:35;96004.91;;;23.93;71.10
39141;BME280;24875;48.436;10.298;2023-06-19T21:56:02;96005.94;;;23.82;72.04
39141;BME280;24875;48.436;10.298;2023-06-19T21:58:28;96000.25;;;23.79;72.81
39141;BME280;24875;48.436;10.298;2023-06-19T22:00:55;95998.84;;;23.66;73.32
39141;BME280;24875;48.436;10.298;2023-06-19T22:03:21;95999.28;;;23.48;74.33
39141;BME280;24875;48.436;10.298;2023-06-19T22:05:48;95992.81;;;23.34;75.29
39141;BME280;24875;48.436;10.298;2023-06-19T22:08:16;95990.09;;;23.39;74.37
39141;BME280;24875;48.436;10.298;2023-06-19T22:10:42;95995.72;;;23.33;74.00
39141;BME280;24875;48.436;10.298;2023-06-19T22:13:09;95994.31;;;23.16;76.23
39141;BME280;24875;48.436;10.298;2023-06-19T22:15:37;95997.88;;;22.95;77.58
39141;BME280;24875;48.436;10.298;2023-06-19T22:18:03;95983.53;;;22.79;78.40
39141;BME280;24875;48.436;10.298;2023-06-19T22:20:30;95990.84;;;22.84;77.71
39141;BME280;24875;48.436;10.298;2023-06-19T22:22:56;95991.47;;;22.60;78.93
39141;BME280;24875;48.436;10.298;2023-06-19T22:25:24;95978.31;;;22.63;78.40
39141;BME280;24875;48.436;10.298;2023-06-19T22:27:51;95980.38;;;22.51;78.60
39141;BME280;24875;48.436;10.298;2023-06-19T22:30:20;95974.97;;;22.46;79.08
39141;BME280;24875;48.436;10.298;2023-06-19T22:32:46;95979.59;;;22.24;80.27
39141;BME280;24875;48.436;10.298;2023-06-19T22:35:13;95967.59;;;22.05;81.16
39141;BME280;24875;48.436;10.298;2023-06-19T22:37:39;95969.53;;;21.84;83.30
39141;BME280;24875;48.436;10.298;2023-06-19T22:40:07;95967.19;;;21.92;83.01
39141;BME280;24875;48.436;10.298;2023-06-19T22:42:35;95974.06;;;22.09;82.04
39141;BME280;24875;48.436;10.298;2023-06-19T22:45:03;95966.16;;;21.93;82.50
39141;BME280;24875;48.436;10.298;2023-06-19T22:47:30;95961.56;;;21.94;82.69
39141;BME280;24875;48.436;10.298;2023-06-19T22:49:56;95953.09;;;21.54;84.96
39141;BME280;24875;48.436;10.298;2023-06-19T22:52:23;95959.06;;;21.40;85.88
39141;BME280;24875;48.436;10.298;2023-06-19T22:54:49;95945.91;;;21.38;86.71
39141;BME280;24875;48.436;10.298;2023-06-19T22:57:16;95951.75;;;21.51;85.71
39141;BME280;24875;48.436;10.298;2023-06-19T22:59:43;95953.75;;;21.66;85.28
39141;BME280;24875;48.436;10.298;2023-06-19T23:02:10;95958.72;;;21.52;85.09
39141;BME280;24875;48.436;10.298;2023-06-19T23:04:36;95956.94;;;21.42;85.41
39141;BME280;24875;48.436;10.298;2023-06-19T23:07:04;95950.84;;;21.46;85.63
39141;BME280;24875;48.436;10.298;2023-06-19T23:09:31;95947.22;;;21.36;85.62
39141;BME280;24875;48.436;10.298;2023-06-19T23:11:57;95947.72;;;21.11;86.78
39141;BME280;24875;48.436;10.298;2023-06-19T23:14:26;95938.56;;;21.07;86.92
39141;BME280;24875;48.436;10.298;2023-06-19T23:16:54;95937.75;;;21.07;86.84
39141;BME280;24875;48.436;10.298;2023-06-19T23:19:22;95938.75;;;21.01;86.30
39141;BME280;24875;48.436;10.298;2023-06-19T23:21:49;95922.81;;;21.11;86.14
39141;BME280;24875;48.436;10.298;2023-06-19T23:24:16;95924.94;;;20.92;87.92
39141;BME280;24875;48.436;10.298;2023-06-19T23:26:42;95924.72;;;20.94;87.75
39141;BME280;24875;48.436;10.298;2023-06-19T23:29:08;95928.63;;;20.86;87.89
39141;BME280;24875;48.436;10.298;2023-06-19T23:31:35;95922.56;;;20.75;88.87
39141;BME280;24875;48.436;10.298;2023-06-19T23:34:05;95912.44;;;20.77;89.27
39141;BME280;24875;48.436;10.298;2023-06-19T23:36:32;95915.09;;;20.60;90.30
39141;BME280;24875;48.436;10.298;2023-06-19T23:38:58;95917.44;;;20.57;90.52
39141;BME280;24875;48.436;10.298;2023-06-19T23:41:26;95910.69;;;20.49;91.39
39141;BME280;24875;48.436;10.298;2023-06-19T23:43:52;95917.34;;;20.68;90.48
39141;BME280;24875;48.436;10.298;2023-06-19T23:46:19;95922.03;;;20.40;90.80
39141;BME280;24875;48.436;10.298;2023-06-19T23:48:45;95913.28;;;20.28;92.06
39141;BME280;24875;48.436;10.298;2023-06-19T23:51:13;95904.22;;;20.13;93.71
39141;BME280;24875;48.436;10.298;2023-06-19T23:53:39;95914.00;;;20.07;95.17
39141;BME280;24875;48.436;10.298;2023-06-19T23:56:06;95903.47;;;20.17;94.13
39141;BME280;24875;48.436;10.298;2023-06-19T23:58:32;95911.66;;;20.43;92.74
